sensor_id;sensor_type;location;lat;lon;timestamp;temperature;humidity
54642;DHT22;40536;53.194;5.728;2024-01-07T00:00:21;0.30;99.90
54642;DHT22;40536;53.194;5.728;2024-01-07T00:02:46;0.30;99.90
54642;DHT22;40536;53.194;5.728;2024-01-07T00:05:12;0.30;99.90
54642;DHT22;40536;53.194;5.728;2024-01-07T00:07:38;0.40;99.90
54642;DHT22;40536;53.194;5.728;2024-01-07T00:10:04;0.40;99.90
54642;DHT22;40536;53.194;5.728;2024-01-07T00:12:32;0.40;99.90
54642;DHT22;40536;53.194;5.728;2024-01-07T00:14:58;1.20;99.90
54642;DHT22;40536;53.194;5.728;2024-01-07T00:17:24;0.40;99.90
54642;DHT22;40536;53.194;5.728;2024-01-07T00:19:49;2.10;99.90
54642;DHT22;40536;53.194;5.728;2024-01-07T00:22:15;0.50;99.90
54642;DHT22;40536;53.194;5.728;2024-01-07T00:24:40;0.50;99.90
54642;DHT22;40536;53.194;5.728;2024-01-07T00:27:06;0.50;99.90
54642;DHT22;40536;53.194;5.728;2024-01-07T00:29:33;0.50;99.90
54642;DHT22;40536;53.194;5.728;2024-01-07T00:32:01;0.50;99.90
54642;DHT22;40536;53.194;5.728;2024-01-07T00:34:27;0.50;99.90
54642;DHT22;40536;53.194;5.728;2024-01-07T00:36:52;1.90;99.90
54642;DHT22;40536;53.194;5.728;2024-01-07T00:39:18;0.50;99.90
54642;DHT22;40536;53.194;5.728;2024-01-07T00:41:44;0.50;99.90
54642;DHT22;40536;53.194;5.728;2024-01-07T00:44:09;0.50;99.90
54642;DHT22;40536;53.194;5.728;2024-01-07T00:46:35;0.50;99.90
54642;DHT22;40536;53.194;5.728;2024-01-07T00:49:00;0.50;99.90
54642;DHT22;40536;53.194;5.728;2024-01-07T00:51:26;1.60;99.90
54642;DHT22;40536;53.194;5.728;2024-01-07T00:53:52;0.50;99.90
54642;DHT22;40536;53.194;5.728;2024-01-07T00:56:17;0.50;99.90
54642;DHT22;40536;53.194;5.728;2024-01-07T00:58:43;0.50;99.90
54642;DHT22;40536;53.194;5.728;2024-01-07T01:01:11;0.50;99.90
54642;DHT22;40536;53.194;5.728;2024-01-07T01:03:36;0.50;99.90
54642;DHT22;40536;53.194;5.728;2024-01-07T01:06:03;0.40;99.90
54642;DHT22;40536;53.194;5.728;2024-01-07T01:08:28;0.50;99.90
54642;DHT22;40536;53.194;5.728;2024-01-07T01:10:54;0.50;99.90
54642;DHT22;40536;53.194;5.728;2024-01-07T01:13:19;0.50;99.90
54642;DHT22;40536;53.194;5.728;2024-01-07T01:15:45;0.50;99.90
54642;DHT22;40536;53.194;5.728;2024-01-07T01:18:11;0.50;99.90
54642;DHT22;40536;53.194;5.728;2024-01-07T01:20:36;0.50;99.90
54642;DHT22;40536;53.194;5.728;2024-01-07T01:23:02;0.40;99.90
54642;DHT22;40536;53.194;5.728;2024-01-07T01:25:27;0.40;99.90
54642;DHT22;40536;53.194;5.728;2024-01-07T01:27:56;0.40;99.90
54642;DHT22;40536;53.194;5.728;2024-01-07T01:30:21;0.40;99.90
54642;DHT22;40536;53.194;5.728;2024-01-07T01:32:47;0.40;99.90
54642;DHT22;40536;53.194;5.728;2024-01-07T01:35:13;0.40;99.90
54642;DHT22;40536;53.194;5.728;2024-01-07T01:37:38;0.40;99.90
54642;DHT22;40536;53.194;5.728;2024-01-07T01:40:04;0.40;99.90
54642;DHT22;40536;53.194;5.728;2024-01-07T01:42:30;0.40;99.90
54642;DHT22;40536;53.194;5.728;2024-01-07T01:44:55;0.30;99.90
54642;DHT22;40536;53.194;5.728;2024-01-07T01:47:25;0.30;99.90
54642;DHT22;40536;53.194;5.728;2024-01-07T01:49:50;0.40;99.90
54642;DHT22;40536;53.194;5.728;2024-01-07T01:52:16;0.30;99.90
54642;DHT22;40536;53.194;5.728;2024-01-07T01:54:42;0.30;99.90
54642;DHT22;40536;53.194;5.728;2024-01-07T01:57:09;0.30;99.90
54642;DHT22;40536;53.194;5.728;2024-01-07T01:59:39;0.30;99.90
54642;DHT22;40536;53.194;5.728;2024-01-07T02:02:06;0.30;99.90
54642;DHT22;40536;53.194;5.728;2024-01-07T02:04:32;0.30;99.90
54642;DHT22;40536;53.194;5.728;2024-01-07T02:06:58;1.40;99.90
54642;DHT22;40536;53.194;5.728;2024-01-07T02:09:24;0.20;99.90
54642;DHT22;40536;53.194;5.728;2024-01-07T02:12:05;0.20;99.90
54642;DHT22;40536;53.194;5.728;2024-01-07T02:14:31;0.20;99.90
54642;DHT22;40536;53.194;5.728;2024-01-07T02:16:57;0.20;99.90
54642;DHT22;40536;53.194;5.728;2024-01-07T02:19:23;0.20;99.90
54642;DHT22;40536;53.194;5.728;2024-01-07T02:21:50;0.10;99.90
54642;DHT22;40536;53.194;5.728;2024-01-07T02:24:17;0.10;99.90
54642;DHT22;40536;53.194;5.728;2024-01-07T02:26:42;0.10;99.90
54642;DHT22;40536;53.194;5.728;2024-01-07T02:29:08;0.10;99.90
54642;DHT22;40536;53.194;5.728;2024-01-07T02:31:33;0.00;99.90
54642;DHT22;40536;53.194;5.728;2024-01-07T02:33:59;0.00;99.90
54642;DHT22;40536;53.194;5.728;2024-01-07T02:36:25;0.00;99.90
54642;DHT22;40536;53.194;5.728;2024-01-07T02:38:50;0.00;99.90
54642;DHT22;40536;53.194;5.728;2024-01-07T02:41:16;0.00;99.90
54642;DHT22;40536;53.194;5.728;2024-01-07T02:43:42;0.00;99.90
54642;DHT22;40536;53.194;5.728;2024-01-07T02:46:08;0.00;99.90
54642;DHT22;40536;53.194;5.728;2024-01-07T02:48:33;0.00;99.90
54642;DHT22;40536;53.194;5.728;2024-01-07T02:51:00;-0.10;99.90
54642;DHT22;40536;53.194;5.728;2024-01-07T02:53:25;0.00;99.90
54642;DHT22;40536;53.194;5.728;2024-01-07T02:55:51;-0.10;99.90
54642;DHT22;40536;53.194;5.728;2024-01-07T02:58:17;-0.10;99.90
54642;DHT22;40536;53.194;5.728;2024-01-07T03:00:43;-0.10;99.90
54642;DHT22;40536;53.194;5.728;2024-01-07T03:03:09;-0.10;99.90
54642;DHT22;40536;53.194;5.728;2024-01-07T03:05:34;-0.10;99.90
54642;DHT22;40536;53.194;5.728;2024-01-07T03:08:00;-0.10;99.90
54642;DHT22;40536;53.194;5.728;2024-01-07T03:10:26;-0.10;99.90
54642;DHT22;40536;53.194;5.728;2024-01-07T03:12:51;-0.10;99.90
54642;DHT22;40536;53.194;5.728;2024-01-07T03:15:17;-0.10;99.90
54642;DHT22;40536;53.194;5.728;2024-01-07T03:17:43;-0.10;99.90
54642;DHT22;40536;53.194;5.728;2024-01-07T03:20:09;-0.10;99.90
54642;DHT22;40536;53.194;5.728;2024-01-07T03:22:35;-0.10;99.90
54642;DHT22;40536;53.194;5.728;2024-01-07T03:25:01;-0.10;99.90
54642;DHT22;40536;53.194;5.728;2024-01-07T03:27:27;-0.10;99.90
54642;DHT22;40536;53.194;5.728;2024-01-07T03:29:52;-0.10;99.90
54642;DHT22;40536;53.194;5.728;2024-01-07T03:32:18;-0.10;99.90
54642;DHT22;40536;53.194;5.728;2024-01-07T03:34:43;0.00;99.90
54642;DHT22;40536;53.194;5.728;2024-01-07T03:37:09;0.00;99.90
54642;DHT22;40536;53.194;5.728;2024-01-07T03:39:35;0.00;99.90
54642;DHT22;40536;53.194;5.728;2024-01-07T03:42:01;0.10;99.90
54642;DHT22;40536;53.194;5.728;2024-01-07T03:44:26;0.10;99.90
54642;DHT22;40536;53.194;5.728;2024-01-07T03:46:52;0.10;99.90
54642;DHT22;40536;53.194;5.728;2024-01-07T03:49:17;0.10;99.90
54642;DHT22;40536;53.194;5.728;2024-01-07T03:51:43;0.10;99.90
54642;DHT22;40536;53.194;5.728;2024-01-07T03:54:09;0.20;99.90
54642;DHT22;40536;53.194;5.728;2024-01-07T03:56:35;0.20;99.90
54642;DHT22;40536;53.194;5.728;2024-01-07T03:59:00;0.20;99.90
54642;DHT22;40536;53.194;5.728;2024-01-07T04:01:26;0.20;99.90
54642;DHT22;40536;53.194;5.728;2024-01-07T04:03:52;0.20;99.90
54642;DHT22;40536;53.194;5.728;2024-01-07T04:06:18;0.30;99.90
54642;DHT22;40536;53.194;5.728;2024-01-07T04:08:43;0.30;99.90
54642;DHT22;40536;53.194;5.728;2024-01-07T04:11:09;0.30;99.90
54642;DHT22;40536;53.194;5.728;2024-01-07T04:13:35;0.30;99.90
54642;DHT22;40536;53.194;5.728;2024-01-07T04:16:00;0.30;99.90
54642;DHT22;40536;53.194;5.728;2024-01-07T04:18:26;0.30;99.90
54642;DHT22;40536;53.194;5.728;2024-01-07T04:20:51;0.40;99.90
54642;DHT22;40536;53.194;5.728;2024-01-07T04:23:17;0.30;99.90
54642;DHT22;40536;53.194;5.728;2024-01-07T04:25:43;2.30;99.90
54642;DHT22;40536;53.194;5.728;2024-01-07T04:28:09;0.30;99.90
54642;DHT22;40536;53.194;5.728;2024-01-07T04:30:35;0.30;99.90
54642;DHT22;40536;53.194;5.728;2024-01-07T04:33:01;0.30;99.90
54642;DHT22;40536;53.194;5.728;2024-01-07T04:35:26;0.30;99.90
54642;DHT22;40536;53.194;5.728;2024-01-07T04:37:52;1.10;99.90
54642;DHT22;40536;53.194;5.728;2024-01-07T04:40:18;0.30;99.90
54642;DHT22;40536;53.194;5.728;2024-01-07T04:42:43;0.30;99.90
54642;DHT22;40536;53.194;5.728;2024-01-07T04:45:09;1.20;99.90
54642;DHT22;40536;53.194;5.728;2024-01-07T04:47:34;0.30;99.90
54642;DHT22;40536;53.194;5.728;2024-01-07T04:50:00;0.30;99.90
54642;DHT22;40536;53.194;5.728;2024-01-07T04:52:27;0.30;99.90
54642;DHT22;40536;53.194;5.728;2024-01-07T04:54:56;0.30;99.90
54642;DHT22;40536;53.194;5.728;2024-01-07T04:57:22;1.10;99.90
54642;DHT22;40536;53.194;5.728;2024-01-07T04:59:51;0.30;99.90
54642;DHT22;40536;53.194;5.728;2024-01-07T05:02:17;0.30;99.90
54642;DHT22;40536;53.194;5.728;2024-01-07T05:04:45;0.20;99.90
54642;DHT22;40536;53.194;5.728;2024-01-07T05:07:11;0.30;99.90
54642;DHT22;40536;53.194;5.728;2024-01-07T05:09:37;0.30;99.90
54642;DHT22;40536;53.194;5.728;2024-01-07T05:12:03;0.30;99.90
54642;DHT22;40536;53.194;5.728;2024-01-07T05:14:28;0.30;99.90
54642;DHT22;40536;53.194;5.728;2024-01-07T05:16:54;0.30;99.90
54642;DHT22;40536;53.194;5.728;2024-01-07T05:19:20;0.30;99.90
54642;DHT22;40536;53.194;5.728;2024-01-07T05:21:46;0.40;99.90
54642;DHT22;40536;53.194;5.728;2024-01-07T05:24:11;0.30;99.90
54642;DHT22;40536;53.194;5.728;2024-01-07T05:26:42;0.30;99.90
54642;DHT22;40536;53.194;5.728;2024-01-07T05:29:08;0.30;99.90
54642;DHT22;40536;53.194;5.728;2024-01-07T05:31:33;0.30;99.90
54642;DHT22;40536;53.194;5.728;2024-01-07T05:33:59;0.30;99.90
54642;DHT22;40536;53.194;5.728;2024-01-07T05:36:25;0.30;99.90
54642;DHT22;40536;53.194;5.728;2024-01-07T05:38:50;0.30;99.90
54642;DHT22;40536;53.194;5.728;2024-01-07T05:41:16;1.70;99.90
54642;DHT22;40536;53.194;5.728;2024-01-07T05:43:42;0.30;99.90
54642;DHT22;40536;53.194;5.728;2024-01-07T05:46:08;2.30;99.90
54642;DHT22;40536;53.194;5.728;2024-01-07T05:48:47;1.60;99.90
54642;DHT22;40536;53.194;5.728;2024-01-07T05:51:13;0.30;99.90
54642;DHT22;40536;53.194;5.728;2024-01-07T05:53:41;1.20;99.90
54642;DHT22;40536;53.194;5.728;2024-01-07T05:56:07;0.50;99.90
54642;DHT22;40536;53.194;5.728;2024-01-07T05:58:33;0.30;99.90
54642;DHT22;40536;53.194;5.728;2024-01-07T06:00:59;1.80;99.90
54642;DHT22;40536;53.194;5.728;2024-01-07T06:03:28;0.30;99.90
54642;DHT22;40536;53.194;5.728;2024-01-07T06:05:55;1.40;99.90
54642;DHT22;40536;53.194;5.728;2024-01-07T06:08:21;0.40;99.90
54642;DHT22;40536;53.194;5.728;2024-01-07T06:10:49;0.40;99.90
54642;DHT22;40536;53.194;5.728;2024-01-07T06:13:15;0.40;99.90
54642;DHT22;40536;53.194;5.728;2024-01-07T06:15:40;1.40;99.90
54642;DHT22;40536;53.194;5.728;2024-01-07T06:18:06;0.40;99.90
54642;DHT22;40536;53.194;5.728;2024-01-07T06:20:32;0.80;99.90
54642;DHT22;40536;53.194;5.728;2024-01-07T06:22:57;0.40;99.90
54642;DHT22;40536;53.194;5.728;2024-01-07T06:25:23;1.90;99.90
54642;DHT22;40536;53.194;5.728;2024-01-07T06:27:51;0.40;99.90
54642;DHT22;40536;53.194;5.728;2024-01-07T06:30:17;0.40;99.90
54642;DHT22;40536;53.194;5.728;2024-01-07T06:32:45;0.40;99.90
54642;DHT22;40536;53.194;5.728;2024-01-07T06:35:11;0.40;99.90
54642;DHT22;40536;53.194;5.728;2024-01-07T06:37:37;0.40;99.90
54642;DHT22;40536;53.194;5.728;2024-01-07T06:40:03;0.40;99.90
54642;DHT22;40536;53.194;5.728;2024-01-07T06:42:29;0.40;99.90
54642;DHT22;40536;53.194;5.728;2024-01-07T06:44:54;0.40;99.90
54642;DHT22;40536;53.194;5.728;2024-01-07T06:47:20;1.10;99.90
54642;DHT22;40536;53.194;5.728;2024-01-07T06:49:45;0.40;99.90
54642;DHT22;40536;53.194;5.728;2024-01-07T06:52:11;0.40;99.90
54642;DHT22;40536;53.194;5.728;2024-01-07T06:54:37;0.40;99.90
54642;DHT22;40536;53.194;5.728;2024-01-07T06:57:04;0.40;99.90
54642;DHT22;40536;53.194;5.728;2024-01-07T06:59:33;0.40;99.90
54642;DHT22;40536;53.194;5.728;2024-01-07T07:01:58;0.40;99.90
54642;DHT22;40536;53.194;5.728;2024-01-07T07:04:24;0.40;99.90
54642;DHT22;40536;53.194;5.728;2024-01-07T07:06:50;0.30;99.90
54642;DHT22;40536;53.194;5.728;2024-01-07T07:09:15;0.40;99.90
54642;DHT22;40536;53.194;5.728;2024-01-07T07:11:41;0.40;99.90
54642;DHT22;40536;53.194;5.728;2024-01-07T07:14:08;0.40;99.90
54642;DHT22;40536;53.194;5.728;2024-01-07T07:16:33;1.10;99.90
54642;DHT22;40536;53.194;5.728;2024-01-07T07:18:59;0.40;99.90
54642;DHT22;40536;53.194;5.728;2024-01-07T07:21:25;0.30;99.90
54642;DHT22;40536;53.194;5.728;2024-01-07T07:23:52;0.30;99.90
54642;DHT22;40536;53.194;5.728;2024-01-07T07:26:17;0.30;99.90
54642;DHT22;40536;53.194;5.728;2024-01-07T07:28:43;0.50;99.90
54642;DHT22;40536;53.194;5.728;2024-01-07T07:31:11;0.40;99.90
54642;DHT22;40536;53.194;5.728;2024-01-07T07:33:41;0.30;99.90
54642;DHT22;40536;53.194;5.728;2024-01-07T07:36:07;1.50;99.90
54642;DHT22;40536;53.194;5.728;2024-01-07T07:38:33;0.30;99.90
54642;DHT22;40536;53.194;5.728;2024-01-07T07:40:59;2.00;99.90
54642;DHT22;40536;53.194;5.728;2024-01-07T07:43:26;0.30;99.90
54642;DHT22;40536;53.194;5.728;2024-01-07T07:45:51;0.30;99.90
54642;DHT22;40536;53.194;5.728;2024-01-07T07:48:18;0.30;99.90
54642;DHT22;40536;53.194;5.728;2024-01-07T07:50:44;2.10;99.90
54642;DHT22;40536;53.194;5.728;2024-01-07T07:53:09;0.20;99.90
54642;DHT22;40536;53.194;5.728;2024-01-07T07:55:35;0.30;99.90
54642;DHT22;40536;53.194;5.728;2024-01-07T07:58:01;0.30;99.90
54642;DHT22;40536;53.194;5.728;2024-01-07T08:00:28;0.20;99.90
54642;DHT22;40536;53.194;5.728;2024-01-07T08:02:53;0.10;99.90
54642;DHT22;40536;53.194;5.728;2024-01-07T08:05:20;0.10;99.90
54642;DHT22;40536;53.194;5.728;2024-01-07T08:07:45;1.40;99.90
54642;DHT22;40536;53.194;5.728;2024-01-07T08:10:11;0.90;99.90
54642;DHT22;40536;53.194;5.728;2024-01-07T08:12:37;0.00;99.90
54642;DHT22;40536;53.194;5.728;2024-01-07T08:15:03;1.00;99.90
54642;DHT22;40536;53.194;5.728;2024-01-07T08:17:29;-0.10;99.90
54642;DHT22;40536;53.194;5.728;2024-01-07T08:19:54;-0.10;99.90
54642;DHT22;40536;53.194;5.728;2024-01-07T08:22:20;-0.30;99.90
54642;DHT22;40536;53.194;5.728;2024-01-07T08:24:46;-0.20;99.90
54642;DHT22;40536;53.194;5.728;2024-01-07T08:27:11;-0.20;99.90
54642;DHT22;40536;53.194;5.728;2024-01-07T08:29:37;-0.30;99.90
54642;DHT22;40536;53.194;5.728;2024-01-07T08:32:03;-0.30;99.90
54642;DHT22;40536;53.194;5.728;2024-01-07T08:34:28;-0.30;99.90
54642;DHT22;40536;53.194;5.728;2024-01-07T08:36:54;-0.40;99.90
54642;DHT22;40536;53.194;5.728;2024-01-07T08:39:20;-0.30;99.90
54642;DHT22;40536;53.194;5.728;2024-01-07T08:41:46;-0.30;99.90
54642;DHT22;40536;53.194;5.728;2024-01-07T08:44:11;-0.30;99.90
54642;DHT22;40536;53.194;5.728;2024-01-07T08:46:37;-0.30;99.90
54642;DHT22;40536;53.194;5.728;2024-01-07T08:49:03;1.20;99.90
54642;DHT22;40536;53.194;5.728;2024-01-07T08:51:29;-1.30;99.90
54642;DHT22;40536;53.194;5.728;2024-01-07T08:53:57;-0.50;99.90
54642;DHT22;40536;53.194;5.728;2024-01-07T08:56:24;-0.20;99.90
54642;DHT22;40536;53.194;5.728;2024-01-07T08:58:50;-0.10;99.90
54642;DHT22;40536;53.194;5.728;2024-01-07T09:01:18;0.00;99.90
54642;DHT22;40536;53.194;5.728;2024-01-07T09:06:10;0.10;99.90
54642;DHT22;40536;53.194;5.728;2024-01-07T09:08:36;0.10;99.90
54642;DHT22;40536;53.194;5.728;2024-01-07T09:11:04;2.20;99.90
54642;DHT22;40536;53.194;5.728;2024-01-07T09:13:31;0.20;99.90
54642;DHT22;40536;53.194;5.728;2024-01-07T09:15:57;0.20;99.90
54642;DHT22;40536;53.194;5.728;2024-01-07T09:18:23;0.20;99.90
54642;DHT22;40536;53.194;5.728;2024-01-07T09:20:48;0.20;99.90
54642;DHT22;40536;53.194;5.728;2024-01-07T09:23:14;0.20;99.90
54642;DHT22;40536;53.194;5.728;2024-01-07T09:25:41;0.30;99.90
54642;DHT22;40536;53.194;5.728;2024-01-07T09:28:07;0.30;99.90
54642;DHT22;40536;53.194;5.728;2024-01-07T09:30:33;0.30;99.90
54642;DHT22;40536;53.194;5.728;2024-01-07T09:32:58;0.30;99.90
54642;DHT22;40536;53.194;5.728;2024-01-07T09:35:24;0.30;99.90
54642;DHT22;40536;53.194;5.728;2024-01-07T09:37:51;0.60;99.90
54642;DHT22;40536;53.194;5.728;2024-01-07T09:40:19;0.30;99.90
54642;DHT22;40536;53.194;5.728;2024-01-07T09:42:46;1.00;99.90
54642;DHT22;40536;53.194;5.728;2024-01-07T09:45:13;0.30;99.90
54642;DHT22;40536;53.194;5.728;2024-01-07T09:47:44;0.40;99.90
54642;DHT22;40536;53.194;5.728;2024-01-07T09:50:10;2.10;99.90
54642;DHT22;40536;53.194;5.728;2024-01-07T09:52:42;0.50;99.90
54642;DHT22;40536;53.194;5.728;2024-01-07T09:55:09;0.50;99.90
54642;DHT22;40536;53.194;5.728;2024-01-07T09:57:35;1.80;99.90
54642;DHT22;40536;53.194;5.728;2024-01-07T10:00:06;0.50;99.90
54642;DHT22;40536;53.194;5.728;2024-01-07T10:02:33;0.60;99.90
54642;DHT22;40536;53.194;5.728;2024-01-07T10:05:00;0.60;99.90
54642;DHT22;40536;53.194;5.728;2024-01-07T10:07:26;0.60;99.90
54642;DHT22;40536;53.194;5.728;2024-01-07T10:09:52;0.60;99.90
54642;DHT22;40536;53.194;5.728;2024-01-07T10:12:23;0.60;99.90
54642;DHT22;40536;53.194;5.728;2024-01-07T10:14:48;0.50;99.90
54642;DHT22;40536;53.194;5.728;2024-01-07T10:17:15;0.70;99.90
54642;DHT22;40536;53.194;5.728;2024-01-07T10:19:45;0.70;99.90
54642;DHT22;40536;53.194;5.728;2024-01-07T10:22:12;0.70;99.90
54642;DHT22;40536;53.194;5.728;2024-01-07T10:24:42;0.70;99.90
54642;DHT22;40536;53.194;5.728;2024-01-07T10:27:09;0.80;99.90
54642;DHT22;40536;53.194;5.728;2024-01-07T10:30:02;1.00;99.90
54642;DHT22;40536;53.194;5.728;2024-01-07T10:32:28;0.90;99.90
54642;DHT22;40536;53.194;5.728;2024-01-07T10:35:02;0.90;99.90
54642;DHT22;40536;53.194;5.728;2024-01-07T10:37:28;0.90;99.90
54642;DHT22;40536;53.194;5.728;2024-01-07T10:39:58;0.90;99.90
54642;DHT22;40536;53.194;5.728;2024-01-07T10:42:30;0.90;99.90
54642;DHT22;40536;53.194;5.728;2024-01-07T10:44:57;0.90;99.90
54642;DHT22;40536;53.194;5.728;2024-01-07T10:47:23;0.90;99.90
54642;DHT22;40536;53.194;5.728;2024-01-07T10:49:53;1.00;99.90
54642;DHT22;40536;53.194;5.728;2024-01-07T10:52:20;1.00;99.90
54642;DHT22;40536;53.194;5.728;2024-01-07T10:54:47;1.00;99.90
54642;DHT22;40536;53.194;5.728;2024-01-07T10:57:34;1.10;99.90
54642;DHT22;40536;53.194;5.728;2024-01-07T11:00:07;1.10;99.90
54642;DHT22;40536;53.194;5.728;2024-01-07T11:05:48;1.20;99.90
54642;DHT22;40536;53.194;5.728;2024-01-07T11:08:34;1.30;99.90
54642;DHT22;40536;53.194;5.728;2024-01-07T11:11:06;1.30;99.90
54642;DHT22;40536;53.194;5.728;2024-01-07T11:13:37;1.30;99.90
54642;DHT22;40536;53.194;5.728;2024-01-07T11:16:07;1.30;99.90
54642;DHT22;40536;53.194;5.728;2024-01-07T11:18:46;1.30;99.90
54642;DHT22;40536;53.194;5.728;2024-01-07T11:21:22;1.20;99.90
54642;DHT22;40536;53.194;5.728;2024-01-07T11:23:50;1.10;99.90
54642;DHT22;40536;53.194;5.728;2024-01-07T11:26:17;1.20;99.90
54642;DHT22;40536;53.194;5.728;2024-01-07T11:28:57;1.10;99.90
54642;DHT22;40536;53.194;5.728;2024-01-07T11:34:07;1.20;99.90
54642;DHT22;40536;53.194;5.728;2024-01-07T11:36:37;1.20;99.90
54642;DHT22;40536;53.194;5.728;2024-01-07T11:39:03;1.20;99.90
54642;DHT22;40536;53.194;5.728;2024-01-07T11:41:33;1.20;99.90
54642;DHT22;40536;53.194;5.728;2024-01-07T11:43:59;1.20;99.90
54642;DHT22;40536;53.194;5.728;2024-01-07T11:46:29;2.40;99.90
54642;DHT22;40536;53.194;5.728;2024-01-07T11:48:58;1.30;99.90
54642;DHT22;40536;53.194;5.728;2024-01-07T11:51:29;1.30;99.90
54642;DHT22;40536;53.194;5.728;2024-01-07T11:53:57;1.30;99.90
54642;DHT22;40536;53.194;5.728;2024-01-07T11:56:24;1.40;99.90
54642;DHT22;40536;53.194;5.728;2024-01-07T11:58:50;1.40;99.90
54642;DHT22;40536;53.194;5.728;2024-01-07T12:01:16;1.50;99.90
54642;DHT22;40536;53.194;5.728;2024-01-07T12:03:44;2.30;99.90
54642;DHT22;40536;53.194;5.728;2024-01-07T12:06:10;1.50;99.90
54642;DHT22;40536;53.194;5.728;2024-01-07T12:08:40;1.60;99.90
54642;DHT22;40536;53.194;5.728;2024-01-07T12:11:06;1.60;99.90
54642;DHT22;40536;53.194;5.728;2024-01-07T12:13:33;1.60;99.90
54642;DHT22;40536;53.194;5.728;2024-01-07T12:15:58;1.70;99.90
54642;DHT22;40536;53.194;5.728;2024-01-07T12:18:24;1.70;99.90
54642;DHT22;40536;53.194;5.728;2024-01-07T12:20:58;3.20;99.90
54642;DHT22;40536;53.194;5.728;2024-01-07T12:23:28;1.70;99.90
54642;DHT22;40536;53.194;5.728;2024-01-07T12:25:54;1.70;99.90
54642;DHT22;40536;53.194;5.728;2024-01-07T12:28:21;1.60;99.90
54642;DHT22;40536;53.194;5.728;2024-01-07T12:30:50;1.60;99.90
54642;DHT22;40536;53.194;5.728;2024-01-07T12:33:17;1.50;99.90
54642;DHT22;40536;53.194;5.728;2024-01-07T12:35:45;1.40;99.90
54642;DHT22;40536;53.194;5.728;2024-01-07T12:38:11;1.40;99.90
54642;DHT22;40536;53.194;5.728;2024-01-07T12:40:37;1.30;99.90
54642;DHT22;40536;53.194;5.728;2024-01-07T12:43:04;1.30;99.90
54642;DHT22;40536;53.194;5.728;2024-01-07T12:45:32;1.40;99.90
54642;DHT22;40536;53.194;5.728;2024-01-07T12:47:58;1.40;99.90
54642;DHT22;40536;53.194;5.728;2024-01-07T12:50:28;1.50;99.90
54642;DHT22;40536;53.194;5.728;2024-01-07T12:52:55;1.50;99.90
54642;DHT22;40536;53.194;5.728;2024-01-07T12:55:22;1.60;99.90
54642;DHT22;40536;53.194;5.728;2024-01-07T12:57:48;1.60;99.90
54642;DHT22;40536;53.194;5.728;2024-01-07T13:00:17;1.60;99.90
54642;DHT22;40536;53.194;5.728;2024-01-07T13:02:42;1.70;99.90
54642;DHT22;40536;53.194;5.728;2024-01-07T13:05:09;1.70;99.90
54642;DHT22;40536;53.194;5.728;2024-01-07T13:07:34;1.80;99.90
54642;DHT22;40536;53.194;5.728;2024-01-07T13:10:01;1.80;99.90
54642;DHT22;40536;53.194;5.728;2024-01-07T13:12:26;2.80;99.90
54642;DHT22;40536;53.194;5.728;2024-01-07T13:14:52;1.80;99.90
54642;DHT22;40536;53.194;5.728;2024-01-07T13:17:18;1.80;99.90
54642;DHT22;40536;53.194;5.728;2024-01-07T13:19:44;1.70;99.90
54642;DHT22;40536;53.194;5.728;2024-01-07T13:22:13;1.70;99.90
54642;DHT22;40536;53.194;5.728;2024-01-07T13:24:40;1.60;99.90
54642;DHT22;40536;53.194;5.728;2024-01-07T13:27:07;1.60;99.90
54642;DHT22;40536;53.194;5.728;2024-01-07T13:29:34;3.10;99.90
54642;DHT22;40536;53.194;5.728;2024-01-07T13:32:00;3.10;99.90
54642;DHT22;40536;53.194;5.728;2024-01-07T13:34:26;1.50;99.90
54642;DHT22;40536;53.194;5.728;2024-01-07T13:36:52;1.90;99.90
54642;DHT22;40536;53.194;5.728;2024-01-07T13:39:19;1.50;99.90
54642;DHT22;40536;53.194;5.728;2024-01-07T13:41:46;1.60;99.90
54642;DHT22;40536;53.194;5.728;2024-01-07T13:44:12;1.50;99.90
54642;DHT22;40536;53.194;5.728;2024-01-07T13:46:46;1.50;99.90
54642;DHT22;40536;53.194;5.728;2024-01-07T13:49:13;1.60;99.90
54642;DHT22;40536;53.194;5.728;2024-01-07T13:51:42;2.40;99.90
54642;DHT22;40536;53.194;5.728;2024-01-07T13:56:38;2.30;99.90
54642;DHT22;40536;53.194;5.728;2024-01-07T13:59:07;1.50;99.90
54642;DHT22;40536;53.194;5.728;2024-01-07T14:01:33;1.50;99.90
54642;DHT22;40536;53.194;5.728;2024-01-07T14:03:59;1.40;99.90
54642;DHT22;40536;53.194;5.728;2024-01-07T14:06:26;1.40;99.90
54642;DHT22;40536;53.194;5.728;2024-01-07T14:08:52;1.40;99.90
54642;DHT22;40536;53.194;5.728;2024-01-07T14:11:18;1.40;99.90
54642;DHT22;40536;53.194;5.728;2024-01-07T14:13:47;1.40;99.90
54642;DHT22;40536;53.194;5.728;2024-01-07T14:16:13;2.60;99.90
54642;DHT22;40536;53.194;5.728;2024-01-07T14:18:39;1.30;99.90
54642;DHT22;40536;53.194;5.728;2024-01-07T14:21:05;1.30;99.90
54642;DHT22;40536;53.194;5.728;2024-01-07T14:23:31;1.30;99.90
54642;DHT22;40536;53.194;5.728;2024-01-07T14:25:58;1.30;99.90
54642;DHT22;40536;53.194;5.728;2024-01-07T14:28:23;2.30;99.90
54642;DHT22;40536;53.194;5.728;2024-01-07T14:30:49;2.80;99.90
54642;DHT22;40536;53.194;5.728;2024-01-07T14:33:15;1.20;99.90
54642;DHT22;40536;53.194;5.728;2024-01-07T14:35:40;1.30;99.90
54642;DHT22;40536;53.194;5.728;2024-01-07T14:38:06;1.30;99.90
54642;DHT22;40536;53.194;5.728;2024-01-07T14:40:32;1.30;99.90
54642;DHT22;40536;53.194;5.728;2024-01-07T14:42:58;1.30;99.90
54642;DHT22;40536;53.194;5.728;2024-01-07T14:45:26;1.30;99.90
54642;DHT22;40536;53.194;5.728;2024-01-07T14:47:53;1.90;99.90
54642;DHT22;40536;53.194;5.728;2024-01-07T14:50:19;1.20;99.90
54642;DHT22;40536;53.194;5.728;2024-01-07T14:52:45;2.20;99.90
54642;DHT22;40536;53.194;5.728;2024-01-07T14:55:11;2.40;99.90
54642;DHT22;40536;53.194;5.728;2024-01-07T14:57:40;1.10;99.90
54642;DHT22;40536;53.194;5.728;2024-01-07T15:00:07;1.10;99.90
54642;DHT22;40536;53.194;5.728;2024-01-07T15:02:34;1.10;99.90
54642;DHT22;40536;53.194;5.728;2024-01-07T15:05:01;1.00;99.90
54642;DHT22;40536;53.194;5.728;2024-01-07T15:07:26;1.00;99.90
54642;DHT22;40536;53.194;5.728;2024-01-07T15:09:52;1.00;99.90
54642;DHT22;40536;53.194;5.728;2024-01-07T15:12:18;0.90;99.90
54642;DHT22;40536;53.194;5.728;2024-01-07T15:14:44;0.90;99.90
54642;DHT22;40536;53.194;5.728;2024-01-07T15:17:10;0.90;99.90
54642;DHT22;40536;53.194;5.728;2024-01-07T15:19:35;2.40;99.90
54642;DHT22;40536;53.194;5.728;2024-01-07T15:22:01;0.80;99.90
54642;DHT22;40536;53.194;5.728;2024-01-07T15:24:28;1.50;99.90
54642;DHT22;40536;53.194;5.728;2024-01-07T15:26:54;0.60;99.90
54642;DHT22;40536;53.194;5.728;2024-01-07T15:29:19;0.60;99.90
54642;DHT22;40536;53.194;5.728;2024-01-07T15:31:45;0.60;99.90
54642;DHT22;40536;53.194;5.728;2024-01-07T15:34:11;0.50;99.90
54642;DHT22;40536;53.194;5.728;2024-01-07T15:36:38;0.50;99.90
54642;DHT22;40536;53.194;5.728;2024-01-07T15:39:04;1.10;99.90
54642;DHT22;40536;53.194;5.728;2024-01-07T15:41:30;0.40;99.90
54642;DHT22;40536;53.194;5.728;2024-01-07T15:43:56;1.10;99.90
54642;DHT22;40536;53.194;5.728;2024-01-07T15:46:21;1.80;99.90
54642;DHT22;40536;53.194;5.728;2024-01-07T15:48:47;0.30;99.90
54642;DHT22;40536;53.194;5.728;2024-01-07T15:51:13;0.20;99.90